Alexander, Kansas
Current Conditions -  °F | °C
As of 4:35 AM on Saturday 01 Nov 2014 (Local Time) from KHYS Reporting Station
Clear Clear  
Wind Chill: 20°   Ceiling: Unl
Heat Index: 30°   Visibility: 10mi
Dew Point: 16°   Wind: 14mph
Humidity: 55%   Direction: 150°SSE
Pressure: 30.3"   Gusts: NA
Location:  38.47°N, 99.55°W
Report Text: KHYS 010935Z AUTO 15012KT 10SM CLR M01/M09 A3030 RMK AO1
Loading
Personal Weather Stations






























Interactive Weather Map
Tropical Storm Tracking
New forecast layout! Learn more

10-Day Weather Forecast

Advertisements
Track Severe Weather on mobile